sensor_id;sensor_type;location;lat;lon;timestamp;P1;P2;P0
77515;PMS5003;66627;29.424;-98.496;2023-07-09T00:00:12;5;5;
77515;PMS5003;66627;29.424;-98.496;2023-07-09T00:02:35;7;7;
77515;PMS5003;66627;29.424;-98.496;2023-07-09T00:05:00;3;3;
77515;PMS5003;66627;29.424;-98.496;2023-07-09T00:07:27;8;7;
77515;PMS5003;66627;29.424;-98.496;2023-07-09T00:09:51;4;4;
77515;PMS5003;66627;29.424;-98.496;2023-07-09T00:12:17;6;5;
77515;PMS5003;66627;29.424;-98.496;2023-07-09T00:14:42;7;5;
77515;PMS5003;66627;29.424;-98.496;2023-07-09T00:17:08;6;6;
77515;PMS5003;66627;29.424;-98.496;2023-07-09T00:19:32;6;6;
77515;PMS5003;66627;29.424;-98.496;2023-07-09T00:21:57;4;4;
77515;PMS5003;66627;29.424;-98.496;2023-07-09T00:24:22;8;7;
77515;PMS5003;66627;29.424;-98.496;2023-07-09T00:26:47;6;6;
77515;PMS5003;66627;29.424;-98.496;2023-07-09T00:29:15;9;6;
77515;PMS5003;66627;29.424;-98.496;2023-07-09T00:31:38;6;6;
77515;PMS5003;66627;29.424;-98.496;2023-07-09T00:34:03;6;6;
77515;PMS5003;66627;29.424;-98.496;2023-07-09T00:36:29;8;8;
77515;PMS5003;66627;29.424;-98.496;2023-07-09T00:38:54;9;7;
77515;PMS5003;66627;29.424;-98.496;2023-07-09T00:41:19;4;4;
77515;PMS5003;66627;29.424;-98.496;2023-07-09T00:43:44;5;5;
77515;PMS5003;66627;29.424;-98.496;2023-07-09T00:46:13;6;6;
77515;PMS5003;66627;29.424;-98.496;2023-07-09T00:48:34;6;5;
77515;PMS5003;66627;29.424;-98.496;2023-07-09T00:50:59;5;4;
77515;PMS5003;66627;29.424;-98.496;2023-07-09T00:53:25;6;6;
77515;PMS5003;66627;29.424;-98.496;2023-07-09T00:55:51;5;5;
77515;PMS5003;66627;29.424;-98.496;2023-07-09T00:58:15;5;5;
77515;PMS5003;66627;29.424;-98.496;2023-07-09T01:00:40;6;6;
77515;PMS5003;66627;29.424;-98.496;2023-07-09T01:03:05;7;7;
77515;PMS5003;66627;29.424;-98.496;2023-07-09T01:05:30;5;5;
77515;PMS5003;66627;29.424;-98.496;2023-07-09T01:07:56;6;5;
77515;PMS5003;66627;29.424;-98.496;2023-07-09T01:10:21;8;7;
77515;PMS5003;66627;29.424;-98.496;2023-07-09T01:12:46;8;6;
77515;PMS5003;66627;29.424;-98.496;2023-07-09T01:15:12;10;9;
77515;PMS5003;66627;29.424;-98.496;2023-07-09T01:17:37;5;5;
77515;PMS5003;66627;29.424;-98.496;2023-07-09T01:20:06;8;6;
77515;PMS5003;66627;29.424;-98.496;2023-07-09T01:22:28;12;10;
77515;PMS5003;66627;29.424;-98.496;2023-07-09T01:24:55;6;6;
77515;PMS5003;66627;29.424;-98.496;2023-07-09T01:27:20;8;7;
77515;PMS5003;66627;29.424;-98.496;2023-07-09T01:29:45;7;7;
77515;PMS5003;66627;29.424;-98.496;2023-07-09T01:32:10;9;9;
77515;PMS5003;66627;29.424;-98.496;2023-07-09T01:34:36;8;8;
77515;PMS5003;66627;29.424;-98.496;2023-07-09T01:37:01;8;7;
77515;PMS5003;66627;29.424;-98.496;2023-07-09T01:39:27;8;8;
77515;PMS5003;66627;29.424;-98.496;2023-07-09T01:41:51;8;6;
77515;PMS5003;66627;29.424;-98.496;2023-07-09T01:44:17;7;7;
77515;PMS5003;66627;29.424;-98.496;2023-07-09T01:46:42;8;7;
77515;PMS5003;66627;29.424;-98.496;2023-07-09T01:49:07;9;9;
77515;PMS5003;66627;29.424;-98.496;2023-07-09T01:51:32;6;6;
77515;PMS5003;66627;29.424;-98.496;2023-07-09T01:53:57;8;8;
77515;PMS5003;66627;29.424;-98.496;2023-07-09T01:56:22;8;7;
77515;PMS5003;66627;29.424;-98.496;2023-07-09T01:58:47;5;5;
77515;PMS5003;66627;29.424;-98.496;2023-07-09T02:01:13;6;6;
77515;PMS5003;66627;29.424;-98.496;2023-07-09T02:03:38;5;5;
77515;PMS5003;66627;29.424;-98.496;2023-07-09T02:06:03;6;6;
77515;PMS5003;66627;29.424;-98.496;2023-07-09T02:08:29;6;6;
77515;PMS5003;66627;29.424;-98.496;2023-07-09T02:10:54;6;6;
77515;PMS5003;66627;29.424;-98.496;2023-07-09T02:13:19;5;5;
77515;PMS5003;66627;29.424;-98.496;2023-07-09T02:15:44;7;7;
77515;PMS5003;66627;29.424;-98.496;2023-07-09T02:18:10;6;5;
77515;PMS5003;66627;29.424;-98.496;2023-07-09T02:20:35;6;6;
77515;PMS5003;66627;29.424;-98.496;2023-07-09T02:23:00;5;3;
77515;PMS5003;66627;29.424;-98.496;2023-07-09T02:25:25;6;6;
77515;PMS5003;66627;29.424;-98.496;2023-07-09T02:27:51;7;7;
77515;PMS5003;66627;29.424;-98.496;2023-07-09T02:30:16;6;6;
77515;PMS5003;66627;29.424;-98.496;2023-07-09T02:32:40;7;7;
77515;PMS5003;66627;29.424;-98.496;2023-07-09T02:35:06;7;7;
77515;PMS5003;66627;29.424;-98.496;2023-07-09T02:37:31;7;7;
77515;PMS5003;66627;29.424;-98.496;2023-07-09T02:39:56;11;11;
77515;PMS5003;66627;29.424;-98.496;2023-07-09T02:42:22;10;9;
77515;PMS5003;66627;29.424;-98.496;2023-07-09T02:44:47;13;13;
77515;PMS5003;66627;29.424;-98.496;2023-07-09T02:47:13;10;10;
77515;PMS5003;66627;29.424;-98.496;2023-07-09T02:49:38;11;9;
77515;PMS5003;66627;29.424;-98.496;2023-07-09T02:52:03;12;12;
77515;PMS5003;66627;29.424;-98.496;2023-07-09T02:54:28;14;11;
77515;PMS5003;66627;29.424;-98.496;2023-07-09T02:56:53;11;11;
77515;PMS5003;66627;29.424;-98.496;2023-07-09T02:59:19;13;11;
77515;PMS5003;66627;29.424;-98.496;2023-07-09T03:01:44;10;10;
77515;PMS5003;66627;29.424;-98.496;2023-07-09T03:04:09;11;11;
77515;PMS5003;66627;29.424;-98.496;2023-07-09T03:06:34;16;15;
77515;PMS5003;66627;29.424;-98.496;2023-07-09T03:08:59;11;11;
77515;PMS5003;66627;29.424;-98.496;2023-07-09T03:11:25;11;11;
77515;PMS5003;66627;29.424;-98.496;2023-07-09T03:13:50;11;10;
77515;PMS5003;66627;29.424;-98.496;2023-07-09T03:16:15;13;11;
77515;PMS5003;66627;29.424;-98.496;2023-07-09T03:18:40;10;10;
77515;PMS5003;66627;29.424;-98.496;2023-07-09T03:21:05;10;10;
77515;PMS5003;66627;29.424;-98.496;2023-07-09T03:23:31;12;10;
77515;PMS5003;66627;29.424;-98.496;2023-07-09T03:25:57;12;9;
77515;PMS5003;66627;29.424;-98.496;2023-07-09T03:28:22;8;8;
77515;PMS5003;66627;29.424;-98.496;2023-07-09T03:30:47;6;6;
77515;PMS5003;66627;29.424;-98.496;2023-07-09T03:33:12;7;7;
77515;PMS5003;66627;29.424;-98.496;2023-07-09T03:35:37;8;7;
77515;PMS5003;66627;29.424;-98.496;2023-07-09T03:38:02;6;6;
77515;PMS5003;66627;29.424;-98.496;2023-07-09T03:40:27;5;4;
77515;PMS5003;66627;29.424;-98.496;2023-07-09T03:42:52;7;7;
77515;PMS5003;66627;29.424;-98.496;2023-07-09T03:45:17;4;4;
77515;PMS5003;66627;29.424;-98.496;2023-07-09T03:47:43;5;4;
77515;PMS5003;66627;29.424;-98.496;2023-07-09T03:50:09;7;7;
77515;PMS5003;66627;29.424;-98.496;2023-07-09T03:52:33;5;5;
77515;PMS5003;66627;29.424;-98.496;2023-07-09T03:54:58;4;4;
77515;PMS5003;66627;29.424;-98.496;2023-07-09T03:57:23;6;5;
77515;PMS5003;66627;29.424;-98.496;2023-07-09T03:59:48;4;3;
77515;PMS5003;66627;29.424;-98.496;2023-07-09T04:02:13;4;4;
77515;PMS5003;66627;29.424;-98.496;2023-07-09T04:04:39;4;4;
77515;PMS5003;66627;29.424;-98.496;2023-07-09T04:07:04;4;4;
77515;PMS5003;66627;29.424;-98.496;2023-07-09T04:09:29;4;4;
77515;PMS5003;66627;29.424;-98.496;2023-07-09T04:11:55;4;4;
77515;PMS5003;66627;29.424;-98.496;2023-07-09T04:14:20;4;4;
77515;PMS5003;66627;29.424;-98.496;2023-07-09T04:16:46;4;3;
77515;PMS5003;66627;29.424;-98.496;2023-07-09T04:19:10;4;4;
77515;PMS5003;66627;29.424;-98.496;2023-07-09T04:21:35;5;5;
77515;PMS5003;66627;29.424;-98.496;2023-07-09T04:24:00;6;6;
77515;PMS5003;66627;29.424;-98.496;2023-07-09T04:26:26;3;3;
77515;PMS5003;66627;29.424;-98.496;2023-07-09T04:28:51;4;4;
77515;PMS5003;66627;29.424;-98.496;2023-07-09T04:31:16;5;2;
77515;PMS5003;66627;29.424;-98.496;2023-07-09T04:33:42;4;3;
77515;PMS5003;66627;29.424;-98.496;2023-07-09T04:36:07;3;3;
77515;PMS5003;66627;29.424;-98.496;2023-07-09T04:38:32;4;4;
77515;PMS5003;66627;29.424;-98.496;2023-07-09T04:40:57;3;3;
77515;PMS5003;66627;29.424;-98.496;2023-07-09T04:43:23;3;3;
77515;PMS5003;66627;29.424;-98.496;2023-07-09T04:45:48;4;4;
77515;PMS5003;66627;29.424;-98.496;2023-07-09T04:48:13;3;2;
77515;PMS5003;66627;29.424;-98.496;2023-07-09T04:50:38;4;3;
77515;PMS5003;66627;29.424;-98.496;2023-07-09T04:53:03;4;3;
77515;PMS5003;66627;29.424;-98.496;2023-07-09T04:55:28;6;4;
77515;PMS5003;66627;29.424;-98.496;2023-07-09T04:57:54;5;4;
77515;PMS5003;66627;29.424;-98.496;2023-07-09T05:00:19;7;4;
77515;PMS5003;66627;29.424;-98.496;2023-07-09T05:02:44;4;3;
77515;PMS5003;66627;29.424;-98.496;2023-07-09T05:05:09;5;5;
77515;PMS5003;66627;29.424;-98.496;2023-07-09T05:07:34;6;4;
77515;PMS5003;66627;29.424;-98.496;2023-07-09T05:09:59;3;1;
77515;PMS5003;66627;29.424;-98.496;2023-07-09T05:12:25;1;1;
77515;PMS5003;66627;29.424;-98.496;2023-07-09T05:14:50;5;4;
77515;PMS5003;66627;29.424;-98.496;2023-07-09T05:17:15;3;3;
77515;PMS5003;66627;29.424;-98.496;2023-07-09T05:19:40;4;2;
77515;PMS5003;66627;29.424;-98.496;2023-07-09T05:22:05;1;1;
77515;PMS5003;66627;29.424;-98.496;2023-07-09T05:24:30;5;4;
77515;PMS5003;66627;29.424;-98.496;2023-07-09T05:26:55;3;3;
77515;PMS5003;66627;29.424;-98.496;2023-07-09T05:29:20;1;1;
77515;PMS5003;66627;29.424;-98.496;2023-07-09T05:31:45;3;3;
77515;PMS5003;66627;29.424;-98.496;2023-07-09T05:34:11;2;2;
77515;PMS5003;66627;29.424;-98.496;2023-07-09T05:36:36;6;4;
77515;PMS5003;66627;29.424;-98.496;2023-07-09T05:39:01;3;3;
77515;PMS5003;66627;29.424;-98.496;2023-07-09T05:41:27;5;4;
77515;PMS5003;66627;29.424;-98.496;2023-07-09T05:43:52;2;1;
77515;PMS5003;66627;29.424;-98.496;2023-07-09T05:46:18;5;3;
77515;PMS5003;66627;29.424;-98.496;2023-07-09T05:48:42;2;2;
77515;PMS5003;66627;29.424;-98.496;2023-07-09T05:51:07;2;2;
77515;PMS5003;66627;29.424;-98.496;2023-07-09T05:53:32;4;3;
77515;PMS5003;66627;29.424;-98.496;2023-07-09T05:55:58;3;3;
77515;PMS5003;66627;29.424;-98.496;2023-07-09T05:58:23;6;5;
77515;PMS5003;66627;29.424;-98.496;2023-07-09T06:00:49;3;3;
77515;PMS5003;66627;29.424;-98.496;2023-07-09T06:03:14;5;5;
77515;PMS5003;66627;29.424;-98.496;2023-07-09T06:05:39;3;3;
77515;PMS5003;66627;29.424;-98.496;2023-07-09T06:08:04;4;4;
77515;PMS5003;66627;29.424;-98.496;2023-07-09T06:10:29;3;3;
77515;PMS5003;66627;29.424;-98.496;2023-07-09T06:12:54;4;2;
77515;PMS5003;66627;29.424;-98.496;2023-07-09T06:15:19;3;2;
77515;PMS5003;66627;29.424;-98.496;2023-07-09T06:17:44;1;1;
77515;PMS5003;66627;29.424;-98.496;2023-07-09T06:20:10;4;4;
77515;PMS5003;66627;29.424;-98.496;2023-07-09T06:22:35;5;3;
77515;PMS5003;66627;29.424;-98.496;2023-07-09T06:25:01;1;1;
77515;PMS5003;66627;29.424;-98.496;2023-07-09T06:27:26;3;2;
77515;PMS5003;66627;29.424;-98.496;2023-07-09T06:29:51;3;3;
77515;PMS5003;66627;29.424;-98.496;2023-07-09T06:32:17;1;1;
77515;PMS5003;66627;29.424;-98.496;2023-07-09T06:34:41;1;1;
77515;PMS5003;66627;29.424;-98.496;2023-07-09T06:37:07;3;3;
77515;PMS5003;66627;29.424;-98.496;2023-07-09T06:39:32;5;5;
77515;PMS5003;66627;29.424;-98.496;2023-07-09T06:41:57;2;2;
77515;PMS5003;66627;29.424;-98.496;2023-07-09T06:44:23;3;3;
77515;PMS5003;66627;29.424;-98.496;2023-07-09T06:46:48;3;3;
77515;PMS5003;66627;29.424;-98.496;2023-07-09T06:49:13;4;2;
77515;PMS5003;66627;29.424;-98.496;2023-07-09T06:51:38;3;3;
77515;PMS5003;66627;29.424;-98.496;2023-07-09T06:54:03;3;3;
77515;PMS5003;66627;29.424;-98.496;2023-07-09T06:56:29;3;2;
77515;PMS5003;66627;29.424;-98.496;2023-07-09T06:58:53;3;2;
77515;PMS5003;66627;29.424;-98.496;2023-07-09T07:01:18;2;2;
77515;PMS5003;66627;29.424;-98.496;2023-07-09T07:03:44;4;4;
77515;PMS5003;66627;29.424;-98.496;2023-07-09T07:06:09;3;3;
77515;PMS5003;66627;29.424;-98.496;2023-07-09T07:08:34;3;3;
77515;PMS5003;66627;29.424;-98.496;2023-07-09T07:11:00;2;2;
77515;PMS5003;66627;29.424;-98.496;2023-07-09T07:13:24;4;4;
77515;PMS5003;66627;29.424;-98.496;2023-07-09T07:15:49;2;2;
77515;PMS5003;66627;29.424;-98.496;2023-07-09T07:18:14;2;2;
77515;PMS5003;66627;29.424;-98.496;2023-07-09T07:20:40;2;2;
77515;PMS5003;66627;29.424;-98.496;2023-07-09T07:23:05;6;4;
77515;PMS5003;66627;29.424;-98.496;2023-07-09T07:25:31;5;4;
77515;PMS5003;66627;29.424;-98.496;2023-07-09T07:27:55;3;3;
77515;PMS5003;66627;29.424;-98.496;2023-07-09T07:30:20;3;3;
77515;PMS5003;66627;29.424;-98.496;2023-07-09T07:32:46;1;1;
77515;PMS5003;66627;29.424;-98.496;2023-07-09T07:35:12;5;3;
77515;PMS5003;66627;29.424;-98.496;2023-07-09T07:37:36;1;1;
77515;PMS5003;66627;29.424;-98.496;2023-07-09T07:40:01;4;4;
77515;PMS5003;66627;29.424;-98.496;2023-07-09T07:42:27;3;3;
77515;PMS5003;66627;29.424;-98.496;2023-07-09T07:44:51;1;1;
77515;PMS5003;66627;29.424;-98.496;2023-07-09T07:47:16;2;2;
77515;PMS5003;66627;29.424;-98.496;2023-07-09T07:49:41;4;4;
77515;PMS5003;66627;29.424;-98.496;2023-07-09T07:52:07;4;2;
77515;PMS5003;66627;29.424;-98.496;2023-07-09T07:54:32;5;5;
77515;PMS5003;66627;29.424;-98.496;2023-07-09T07:56:57;3;3;
77515;PMS5003;66627;29.424;-98.496;2023-07-09T07:59:22;4;4;
77515;PMS5003;66627;29.424;-98.496;2023-07-09T08:01:47;5;4;
77515;PMS5003;66627;29.424;-98.496;2023-07-09T08:04:12;7;4;
77515;PMS5003;66627;29.424;-98.496;2023-07-09T08:06:37;2;2;
77515;PMS5003;66627;29.424;-98.496;2023-07-09T08:09:03;4;4;
77515;PMS5003;66627;29.424;-98.496;2023-07-09T08:11:28;3;3;
77515;PMS5003;66627;29.424;-98.496;2023-07-09T08:13:53;7;4;
77515;PMS5003;66627;29.424;-98.496;2023-07-09T08:16:18;7;5;
77515;PMS5003;66627;29.424;-98.496;2023-07-09T08:18:44;5;5;
77515;PMS5003;66627;29.424;-98.496;2023-07-09T08:21:09;2;2;
77515;PMS5003;66627;29.424;-98.496;2023-07-09T08:23:34;3;3;
77515;PMS5003;66627;29.424;-98.496;2023-07-09T08:26:00;2;2;
77515;PMS5003;66627;29.424;-98.496;2023-07-09T08:28:25;3;3;
77515;PMS5003;66627;29.424;-98.496;2023-07-09T08:30:51;3;3;
77515;PMS5003;66627;29.424;-98.496;2023-07-09T08:33:15;6;4;
77515;PMS5003;66627;29.424;-98.496;2023-07-09T08:35:42;5;5;
77515;PMS5003;66627;29.424;-98.496;2023-07-09T08:38:05;4;4;
77515;PMS5003;66627;29.424;-98.496;2023-07-09T08:40:31;6;5;
77515;PMS5003;66627;29.424;-98.496;2023-07-09T08:42:57;6;3;
77515;PMS5003;66627;29.424;-98.496;2023-07-09T08:45:24;4;3;
77515;PMS5003;66627;29.424;-98.496;2023-07-09T08:47:47;1;1;
77515;PMS5003;66627;29.424;-98.496;2023-07-09T08:50:13;2;2;
77515;PMS5003;66627;29.424;-98.496;2023-07-09T08:52:37;4;4;
77515;PMS5003;66627;29.424;-98.496;2023-07-09T08:55:03;5;5;
77515;PMS5003;66627;29.424;-98.496;2023-07-09T08:57:27;4;4;
77515;PMS5003;66627;29.424;-98.496;2023-07-09T08:59:59;3;3;
77515;PMS5003;66627;29.424;-98.496;2023-07-09T09:02:22;4;4;
77515;PMS5003;66627;29.424;-98.496;2023-07-09T09:04:42;4;4;
77515;PMS5003;66627;29.424;-98.496;2023-07-09T09:07:12;4;3;
77515;PMS5003;66627;29.424;-98.496;2023-07-09T09:09:33;4;4;
77515;PMS5003;66627;29.424;-98.496;2023-07-09T09:11:59;6;6;
77515;PMS5003;66627;29.424;-98.496;2023-07-09T09:14:25;6;5;
77515;PMS5003;66627;29.424;-98.496;2023-07-09T09:16:48;6;4;
77515;PMS5003;66627;29.424;-98.496;2023-07-09T09:19:15;3;3;
77515;PMS5003;66627;29.424;-98.496;2023-07-09T09:21:38;5;5;
77515;PMS5003;66627;29.424;-98.496;2023-07-09T09:26:30;5;5;
77515;PMS5003;66627;29.424;-98.496;2023-07-09T09:28:55;4;4;
77515;PMS5003;66627;29.424;-98.496;2023-07-09T09:31:20;6;6;
77515;PMS5003;66627;29.424;-98.496;2023-07-09T09:33:46;3;3;
77515;PMS5003;66627;29.424;-98.496;2023-07-09T09:36:14;7;5;
77515;PMS5003;66627;29.424;-98.496;2023-07-09T09:38:35;4;4;
77515;PMS5003;66627;29.424;-98.496;2023-07-09T09:41:00;2;2;
77515;PMS5003;66627;29.424;-98.496;2023-07-09T09:43:31;5;5;
77515;PMS5003;66627;29.424;-98.496;2023-07-09T09:45:50;5;3;
77515;PMS5003;66627;29.424;-98.496;2023-07-09T09:48:17;4;4;
77515;PMS5003;66627;29.424;-98.496;2023-07-09T09:50:41;2;2;
77515;PMS5003;66627;29.424;-98.496;2023-07-09T09:53:07;3;3;
77515;PMS5003;66627;29.424;-98.496;2023-07-09T09:55:31;4;4;
77515;PMS5003;66627;29.424;-98.496;2023-07-09T09:57:57;6;5;
77515;PMS5003;66627;29.424;-98.496;2023-07-09T10:00:23;4;3;
77515;PMS5003;66627;29.424;-98.496;2023-07-09T10:02:48;5;5;
77515;PMS5003;66627;29.424;-98.496;2023-07-09T10:05:13;6;4;
77515;PMS5003;66627;29.424;-98.496;2023-07-09T10:07:39;5;5;
77515;PMS5003;66627;29.424;-98.496;2023-07-09T10:10:03;5;3;
77515;PMS5003;66627;29.424;-98.496;2023-07-09T10:12:34;4;4;
77515;PMS5003;66627;29.424;-98.496;2023-07-09T10:14:55;6;4;
77515;PMS5003;66627;29.424;-98.496;2023-07-09T10:17:20;7;5;
77515;PMS5003;66627;29.424;-98.496;2023-07-09T10:19:47;6;5;
77515;PMS5003;66627;29.424;-98.496;2023-07-09T10:22:12;4;4;
77515;PMS5003;66627;29.424;-98.496;2023-07-09T10:24:37;3;3;
77515;PMS5003;66627;29.424;-98.496;2023-07-09T10:27:02;4;3;
77515;PMS5003;66627;29.424;-98.496;2023-07-09T10:31:53;3;3;
77515;PMS5003;66627;29.424;-98.496;2023-07-09T10:34:19;6;6;
77515;PMS5003;66627;29.424;-98.496;2023-07-09T10:36:46;5;5;
77515;PMS5003;66627;29.424;-98.496;2023-07-09T10:39:07;3;3;
77515;PMS5003;66627;29.424;-98.496;2023-07-09T10:41:32;5;5;
77515;PMS5003;66627;29.424;-98.496;2023-07-09T10:43:58;5;4;
77515;PMS5003;66627;29.424;-98.496;2023-07-09T10:46:22;7;7;
77515;PMS5003;66627;29.424;-98.496;2023-07-09T10:48:48;9;8;
77515;PMS5003;66627;29.424;-98.496;2023-07-09T10:51:16;5;3;
77515;PMS5003;66627;29.424;-98.496;2023-07-09T10:53:39;6;6;
77515;PMS5003;66627;29.424;-98.496;2023-07-09T10:56:05;4;2;
77515;PMS5003;66627;29.424;-98.496;2023-07-09T10:58:30;3;3;
77515;PMS5003;66627;29.424;-98.496;2023-07-09T11:00:54;6;5;
77515;PMS5003;66627;29.424;-98.496;2023-07-09T11:03:19;4;3;
77515;PMS5003;66627;29.424;-98.496;2023-07-09T11:05:44;4;3;
77515;PMS5003;66627;29.424;-98.496;2023-07-09T11:08:11;8;6;
77515;PMS5003;66627;29.424;-98.496;2023-07-09T11:10:36;7;5;
77515;PMS5003;66627;29.424;-98.496;2023-07-09T11:13:01;5;5;
77515;PMS5003;66627;29.424;-98.496;2023-07-09T11:15:27;6;6;
77515;PMS5003;66627;29.424;-98.496;2023-07-09T11:17:50;4;4;
77515;PMS5003;66627;29.424;-98.496;2023-07-09T11:20:17;4;4;
77515;PMS5003;66627;29.424;-98.496;2023-07-09T11:22:40;5;5;
77515;PMS5003;66627;29.424;-98.496;2023-07-09T11:25:08;8;8;
77515;PMS5003;66627;29.424;-98.496;2023-07-09T11:27:32;5;5;
77515;PMS5003;66627;29.424;-98.496;2023-07-09T11:29:58;6;6;
77515;PMS5003;66627;29.424;-98.496;2023-07-09T11:32:23;6;6;
77515;PMS5003;66627;29.424;-98.496;2023-07-09T11:34:48;5;5;
77515;PMS5003;66627;29.424;-98.496;2023-07-09T11:37:13;8;5;
77515;PMS5003;66627;29.424;-98.496;2023-07-09T11:39:42;8;8;
77515;PMS5003;66627;29.424;-98.496;2023-07-09T11:42:21;6;6;
77515;PMS5003;66627;29.424;-98.496;2023-07-09T11:44:29;8;8;
77515;PMS5003;66627;29.424;-98.496;2023-07-09T11:46:58;6;6;
77515;PMS5003;66627;29.424;-98.496;2023-07-09T11:49:21;10;7;
77515;PMS5003;66627;29.424;-98.496;2023-07-09T11:51:46;7;5;
77515;PMS5003;66627;29.424;-98.496;2023-07-09T11:54:11;5;5;
77515;PMS5003;66627;29.424;-98.496;2023-07-09T11:56:36;7;7;
77515;PMS5003;66627;29.424;-98.496;2023-07-09T11:59:01;9;9;
77515;PMS5003;66627;29.424;-98.496;2023-07-09T12:01:28;11;9;
77515;PMS5003;66627;29.424;-98.496;2023-07-09T12:03:52;10;9;
77515;PMS5003;66627;29.424;-98.496;2023-07-09T12:06:18;11;8;
77515;PMS5003;66627;29.424;-98.496;2023-07-09T12:08:44;10;10;
77515;PMS5003;66627;29.424;-98.496;2023-07-09T12:13:37;12;11;
77515;PMS5003;66627;29.424;-98.496;2023-07-09T12:15:59;11;11;
77515;PMS5003;66627;29.424;-98.496;2023-07-09T12:18:24;13;8;
77515;PMS5003;66627;29.424;-98.496;2023-07-09T12:20:50;8;8;
77515;PMS5003;66627;29.424;-98.496;2023-07-09T12:23:18;14;11;
77515;PMS5003;66627;29.424;-98.496;2023-07-09T12:25:46;11;10;
77515;PMS5003;66627;29.424;-98.496;2023-07-09T12:30:32;11;11;
77515;PMS5003;66627;29.424;-98.496;2023-07-09T12:32:57;15;15;
77515;PMS5003;66627;29.424;-98.496;2023-07-09T12:35:22;12;11;
77515;PMS5003;66627;29.424;-98.496;2023-07-09T12:37:48;12;11;
77515;PMS5003;66627;29.424;-98.496;2023-07-09T12:40:14;15;14;
77515;PMS5003;66627;29.424;-98.496;2023-07-09T12:42:38;11;11;
77515;PMS5003;66627;29.424;-98.496;2023-07-09T12:45:04;12;11;
77515;PMS5003;66627;29.424;-98.496;2023-07-09T12:47:28;9;9;
77515;PMS5003;66627;29.424;-98.496;2023-07-09T12:52:19;10;9;
77515;PMS5003;66627;29.424;-98.496;2023-07-09T12:57:13;10;10;
77515;PMS5003;66627;29.424;-98.496;2023-07-09T12:59:37;11;11;
77515;PMS5003;66627;29.424;-98.496;2023-07-09T13:02:03;12;11;
77515;PMS5003;66627;29.424;-98.496;2023-07-09T13:04:29;11;11;
77515;PMS5003;66627;29.424;-98.496;2023-07-09T13:06:51;9;9;
77515;PMS5003;66627;29.424;-98.496;2023-07-09T13:09:19;12;11;
77515;PMS5003;66627;29.424;-98.496;2023-07-09T13:11:46;11;11;
77515;PMS5003;66627;29.424;-98.496;2023-07-09T13:14:11;11;9;
77515;PMS5003;66627;29.424;-98.496;2023-07-09T13:18:57;10;10;
77515;PMS5003;66627;29.424;-98.496;2023-07-09T13:21:22;8;8;
77515;PMS5003;66627;29.424;-98.496;2023-07-09T13:23:47;8;8;
77515;PMS5003;66627;29.424;-98.496;2023-07-09T13:26:12;10;10;
77515;PMS5003;66627;29.424;-98.496;2023-07-09T13:28:38;9;8;
77515;PMS5003;66627;29.424;-98.496;2023-07-09T13:31:18;10;10;
77515;PMS5003;66627;29.424;-98.496;2023-07-09T13:33:28;13;9;
77515;PMS5003;66627;29.424;-98.496;2023-07-09T13:35:53;10;10;
77515;PMS5003;66627;29.424;-98.496;2023-07-09T13:38:20;11;8;
77515;PMS5003;66627;29.424;-98.496;2023-07-09T13:40:47;6;6;
77515;PMS5003;66627;29.424;-98.496;2023-07-09T13:43:11;10;10;
77515;PMS5003;66627;29.424;-98.496;2023-07-09T13:45:35;9;9;
77515;PMS5003;66627;29.424;-98.496;2023-07-09T13:48:01;10;10;
77515;PMS5003;66627;29.424;-98.496;2023-07-09T13:50:26;8;8;
77515;PMS5003;66627;29.424;-98.496;2023-07-09T13:52:51;14;14;
77515;PMS5003;66627;29.424;-98.496;2023-07-09T13:55:17;8;8;
77515;PMS5003;66627;29.424;-98.496;2023-07-09T13:57:42;7;7;
77515;PMS5003;66627;29.424;-98.496;2023-07-09T14:00:08;11;11;
77515;PMS5003;66627;29.424;-98.496;2023-07-09T14:02:32;10;9;
77515;PMS5003;66627;29.424;-98.496;2023-07-09T14:04:57;8;8;
77515;PMS5003;66627;29.424;-98.496;2023-07-09T14:07:24;11;9;
77515;PMS5003;66627;29.424;-98.496;2023-07-09T14:09:47;8;8;
77515;PMS5003;66627;29.424;-98.496;2023-07-09T14:12:13;12;10;
77515;PMS5003;66627;29.424;-98.496;2023-07-09T14:14:39;9;8;
77515;PMS5003;66627;29.424;-98.496;2023-07-09T14:17:06;13;10;
77515;PMS5003;66627;29.424;-98.496;2023-07-09T14:19:29;10;8;
77515;PMS5003;66627;29.424;-98.496;2023-07-09T14:21:55;10;10;
77515;PMS5003;66627;29.424;-98.496;2023-07-09T14:24:21;10;8;
77515;PMS5003;66627;29.424;-98.496;2023-07-09T14:26:45;11;11;
77515;PMS5003;66627;29.424;-98.496;2023-07-09T14:29:10;11;11;
77515;PMS5003;66627;29.424;-98.496;2023-07-09T14:31:36;9;9;
77515;PMS5003;66627;29.424;-98.496;2023-07-09T14:34:07;13;12;
77515;PMS5003;66627;29.424;-98.496;2023-07-09T14:36:27;12;10;
77515;PMS5003;66627;29.424;-98.496;2023-07-09T14:38:52;8;8;
77515;PMS5003;66627;29.424;-98.496;2023-07-09T14:41:19;8;8;
77515;PMS5003;66627;29.424;-98.496;2023-07-09T14:43:43;10;9;
77515;PMS5003;66627;29.424;-98.496;2023-07-09T14:46:08;8;8;
77515;PMS5003;66627;29.424;-98.496;2023-07-09T14:48:34;9;9;
77515;PMS5003;66627;29.424;-98.496;2023-07-09T14:50:59;10;9;
77515;PMS5003;66627;29.424;-98.496;2023-07-09T14:53:25;8;8;
77515;PMS5003;66627;29.424;-98.496;2023-07-09T14:55:51;8;8;
77515;PMS5003;66627;29.424;-98.496;2023-07-09T14:58:16;9;9;
77515;PMS5003;66627;29.424;-98.496;2023-07-09T15:00:41;12;10;
77515;PMS5003;66627;29.424;-98.496;2023-07-09T15:03:07;8;8;
77515;PMS5003;66627;29.424;-98.496;2023-07-09T15:05:31;8;8;
77515;PMS5003;66627;29.424;-98.496;2023-07-09T15:07:56;8;8;
77515;PMS5003;66627;29.424;-98.496;2023-07-09T15:10:22;9;8;
77515;PMS5003;66627;29.424;-98.496;2023-07-09T15:12:46;10;9;
77515;PMS5003;66627;29.424;-98.496;2023-07-09T15:15:13;7;7;
77515;PMS5003;66627;29.424;-98.496;2023-07-09T15:17:37;9;8;
77515;PMS5003;66627;29.424;-98.496;2023-07-09T15:20:03;6;6;
77515;PMS5003;66627;29.424;-98.496;2023-07-09T15:22:30;7;7;
77515;PMS5003;66627;29.424;-98.496;2023-07-09T15:24:53;7;4;
77515;PMS5003;66627;29.424;-98.496;2023-07-09T15:27:18;6;5;
77515;PMS5003;66627;29.424;-98.496;2023-07-09T15:29:43;4;4;
77515;PMS5003;66627;29.424;-98.496;2023-07-09T15:32:09;6;6;
77515;PMS5003;66627;29.424;-98.496;2023-07-09T15:34:33;3;2;
77515;PMS5003;66627;29.424;-98.496;2023-07-09T15:36:59;7;6;
77515;PMS5003;66627;29.424;-98.496;2023-07-09T15:39:24;4;4;
77515;PMS5003;66627;29.424;-98.496;2023-07-09T15:41:49;8;8;
77515;PMS5003;66627;29.424;-98.496;2023-07-09T15:44:15;4;4;
77515;PMS5003;66627;29.424;-98.496;2023-07-09T15:46:39;5;5;
77515;PMS5003;66627;29.424;-98.496;2023-07-09T15:49:04;4;4;
77515;PMS5003;66627;29.424;-98.496;2023-07-09T15:51:29;5;5;
77515;PMS5003;66627;29.424;-98.496;2023-07-09T15:53:55;7;7;
77515;PMS5003;66627;29.424;-98.496;2023-07-09T15:56:22;8;5;
77515;PMS5003;66627;29.424;-98.496;2023-07-09T15:58:45;6;4;
77515;PMS5003;66627;29.424;-98.496;2023-07-09T16:01:10;7;5;
77515;PMS5003;66627;29.424;-98.496;2023-07-09T16:03:35;5;5;
77515;PMS5003;66627;29.424;-98.496;2023-07-09T16:06:01;5;5;
77515;PMS5003;66627;29.424;-98.496;2023-07-09T16:08:25;5;5;
77515;PMS5003;66627;29.424;-98.496;2023-07-09T16:10:51;5;5;
77515;PMS5003;66627;29.424;-98.496;2023-07-09T16:13:17;5;5;